Time;durP1;ratioP1;P1;durP2;ratioP2;P2;SDS_P1;SDS_P2;PMS_P1;PMS_P2;Temp;Humidity;BMP_temperature;BMP_pressure;BME280_temperature;BME280_humidity;BME280_pressure;Samples;Min_cycle;Max_cycle;Signal;HPM_P1;HPM_P2
2023/12/01 00:02:24;;;;;;;26.40;17.70;;;0.50;99.90;;;-141.84;100.00;119224.81;5012794;28;20338;-72
2023/12/01 00:04:53;;;;;;;27.07;17.13;;;0.50;99.90;;;-141.84;100.00;119224.81;5012901;28;20313;-72
2023/12/01 00:07:21;;;;;;;27.03;17.40;;;0.70;99.90;;;-141.84;100.00;119224.81;5013772;28;20203;-72
2023/12/01 00:09:50;;;;;;;25.67;17.07;;;0.70;99.90;;;-141.84;100.00;119224.81;5012947;28;20632;-70
2023/12/01 00:12:19;;;;;;;28.20;18.77;;;0.60;99.90;;;-141.84;100.00;119224.81;5012597;28;20226;-73
2023/12/01 00:14:48;;;;;;;31.93;20.17;;;0.60;99.90;;;-141.84;100.00;119224.81;5012675;28;20222;-72
2023/12/01 00:17:16;;;;;;;30.80;19.10;;;0.80;99.90;;;-141.84;100.00;119222.75;5012750;28;20794;-71
2023/12/01 00:19:44;;;;;;;31.30;19.77;;;0.80;99.90;;;-141.84;100.00;118956.03;5012239;28;20289;-71
2023/12/01 00:22:12;;;;;;;34.80;21.23;;;1.10;99.90;;;-141.84;100.00;118956.03;5012842;28;20203;-71
2023/12/01 00:24:40;;;;;;;29.80;19.13;;;0.70;99.90;;;-141.84;100.00;119222.75;5012645;28;20281;-72
2023/12/01 00:27:09;;;;;;;33.33;20.13;;;0.60;99.90;;;-141.84;100.00;118156.06;5012593;28;20749;-70
2023/12/01 00:29:38;;;;;;;33.63;20.30;;;0.70;99.90;;;-141.84;100.00;116556.59;5012481;28;20314;-71
2023/12/01 00:32:06;;;;;;;31.83;20.37;;;0.70;99.90;;;-141.84;100.00;115490.59;5011993;28;20652;-70
2023/12/01 00:34:34;;;;;;;32.80;20.33;;;0.70;99.90;;;-141.84;100.00;116556.59;5013979;28;20293;-71
2023/12/01 00:37:24;;;;;;;35.60;20.27;;;0.60;99.90;;;-141.84;100.00;113359.50;5014834;28;20309;-70
2023/12/01 00:39:52;;;;;;;34.40;20.43;;;0.70;99.90;;;-141.84;100.00;111229.50;5014702;28;20226;-72
2023/12/01 00:42:20;;;;;;;31.10;18.37;;;0.60;99.90;;;-141.84;100.00;113093.19;5015050;28;20227;-71
2023/12/01 00:44:50;;;;;;;28.90;18.77;;;0.60;99.90;;;-141.84;100.00;114957.72;5012952;28;20310;-72
2023/12/01 00:47:18;;;;;;;32.03;19.13;;;0.60;99.90;;;-141.84;100.00;116290.06;5013327;28;20231;-72
2023/12/01 00:49:46;;;;;;;31.60;18.90;;;0.60;99.90;;;-141.84;100.00;112560.63;5013196;28;20552;-72
2023/12/01 00:52:14;;;;;;;31.20;19.63;;;0.70;99.90;;;-141.84;100.00;111495.69;5015768;28;20241;-71
2023/12/01 00:54:42;;;;;;;31.47;19.17;;;0.60;99.90;;;-141.84;100.00;113625.81;5016872;28;20650;-71
2023/12/01 00:57:11;;;;;;;30.90;19.20;;;0.60;99.90;;;-141.84;100.00;114424.91;5014344;28;20265;-71
2023/12/01 00:59:39;;;;;;;28.87;18.17;;;0.60;99.90;;;-141.84;100.00;115757.06;5012762;28;20231;-71
2023/12/01 01:02:09;;;;;;;28.27;17.47;;;0.60;99.90;;;-141.84;100.00;116556.59;5014012;28;20222;-72
2023/12/01 01:04:37;;;;;;;30.33;18.50;;;0.50;99.90;;;-141.84;100.00;117089.69;5014102;28;20215;-70
2023/12/01 01:07:05;;;;;;;30.13;19.07;;;0.60;99.90;;;-141.84;100.00;115490.59;5015587;28;20702;-71
2023/12/01 01:09:34;;;;;;;27.40;17.50;;;0.60;99.90;;;-141.84;100.00;113093.19;5015202;28;20658;-71
2023/12/01 01:12:02;;;;;;;31.80;19.30;;;0.70;99.90;;;-141.84;100.00;108036.56;5014343;28;20226;-72
2023/12/01 01:14:30;;;;;;;30.70;18.47;;;0.80;99.90;;;-141.84;100.00;106441.06;5014230;28;20238;-72
2023/12/01 01:16:58;;;;;;;27.93;18.03;;;0.70;99.90;;;-141.84;100.00;106441.06;5012780;28;20658;-71
2023/12/01 01:19:28;;;;;;;26.93;17.67;;;0.70;99.90;;;-141.84;100.00;109100.59;5012440;28;20255;-72
2023/12/01 01:21:57;;;;;;;28.57;17.53;;;0.60;99.90;;;-141.84;100.00;111229.50;5013944;28;20317;-72
2023/12/01 01:24:25;;;;;;;30.03;18.67;;;0.50;99.90;;;-141.84;100.00;113892.16;5015333;28;20226;-72
2023/12/01 01:26:53;;;;;;;28.20;17.03;;;0.50;99.90;;;-141.84;100.00;116290.06;5015269;28;20227;-72
2023/12/01 01:29:21;;;;;;;27.27;17.50;;;0.50;99.90;;;-141.84;100.00;116556.59;5015953;28;20227;-71
2023/12/01 01:31:49;;;;;;;29.47;18.60;;;0.50;99.90;;;-141.84;100.00;116823.13;5015741;28;20322;-73
2023/12/01 01:34:18;;;;;;;28.17;17.77;;;0.50;99.90;;;-141.84;100.00;117622.84;5015896;28;20203;-71
2023/12/01 01:36:52;;;;;;;29.03;18.13;;;0.50;99.90;;;-141.84;100.00;116023.56;5015218;28;20806;-71
2023/12/01 01:39:20;;;;;;;26.13;16.90;;;0.60;99.90;;;-141.84;100.00;114158.53;5013990;28;20252;-71
2023/12/01 01:41:48;;;;;;;26.03;16.93;;;0.50;99.90;;;-141.84;100.00;114424.91;5013818;28;20288;-72
2023/12/01 01:44:16;;;;;;;25.73;16.80;;;0.50;99.90;;;-141.84;100.00;113892.16;5010386;28;20288;-71
2023/12/01 01:46:46;;;;;;;27.77;16.87;;;0.50;99.90;;;-141.84;100.00;113359.50;5010744;28;20777;-72
2023/12/01 01:49:14;;;;;;;24.97;15.77;;;0.40;99.90;;;-141.84;100.00;111761.88;5011911;28;20201;-71
2023/12/01 01:51:44;;;;;;;26.73;16.20;;;0.50;99.90;;;-141.84;100.00;110963.31;5010834;28;20233;-72
2023/12/01 01:54:15;;;;;;;25.77;16.13;;;0.50;99.90;;;-141.84;100.00;113359.50;5010976;28;20257;-70
2023/12/01 01:56:46;;;;;;;26.57;16.67;;;0.40;99.90;;;-141.84;100.00;112028.13;5010939;28;20305;-71
2023/12/01 01:59:14;;;;;;;26.90;17.37;;;0.50;99.90;;;-141.84;100.00;111761.88;5010891;28;20300;-71
2023/12/01 02:01:42;;;;;;;28.97;17.20;;;0.50;99.90;;;-141.84;100.00;112294.34;5011208;28;20269;-71
2023/12/01 02:04:11;;;;;;;29.40;18.13;;;0.40;99.90;;;-141.84;100.00;112826.88;5011449;28;20206;-74
2023/12/01 02:06:39;;;;;;;26.37;17.27;;;0.40;99.90;;;-141.84;100.00;112560.63;5010756;28;20238;-71
2023/12/01 02:09:08;;;;;;;27.00;16.33;;;0.50;99.90;;;-141.84;100.00;109898.81;5010964;28;20222;-71
2023/12/01 02:11:38;;;;;;;28.43;17.90;;;0.50;99.90;;;-141.84;100.00;109366.66;5010832;28;20257;-71
2023/12/01 02:14:06;;;;;;;27.40;17.23;;;0.50;99.90;;;-141.84;100.00;108302.56;5010427;28;20230;-62
2023/12/01 02:16:34;;;;;;;24.60;15.63;;;0.50;99.90;;;-141.84;100.00;104314.66;5010515;28;20238;-63
2023/12/01 02:19:02;;;;;;;26.40;16.60;;;0.60;99.90;;;-141.84;100.00;104048.94;5010438;28;20246;-62
2023/12/01 02:21:37;;;;;;;26.73;16.50;;;0.60;99.90;;;-141.84;100.00;104846.16;5010203;28;20223;-63
2023/12/01 02:24:08;;;;;;;24.73;15.90;;;0.60;99.90;;;-141.84;100.00;105909.34;5010130;28;20304;-62
2023/12/01 02:26:37;;;;;;;25.00;16.10;;;0.60;99.90;;;-141.84;100.00;106972.81;5010148;28;20230;-62
2023/12/01 02:29:06;;;;;;;26.70;16.00;;;0.40;99.90;;;-141.84;100.00;108036.56;5009891;28;20661;-62
2023/12/01 02:31:36;;;;;;;26.13;16.07;;;0.50;99.90;;;-141.84;100.00;106706.94;4996763;28;20722;-62
2023/12/01 02:34:04;;;;;;;26.33;16.03;;;0.40;99.90;;;-141.84;100.00;109100.59;4991046;28;20220;-62
2023/12/01 02:36:33;;;;;;;23.20;15.67;;;0.40;99.90;;;-141.84;100.00;111229.50;4990657;28;20250;-62
2023/12/01 02:39:03;;;;;;;24.37;15.40;;;0.30;99.90;;;-141.84;100.00;112294.34;5002622;28;20279;-62
2023/12/01 02:41:31;;;;;;;24.27;14.70;;;0.40;99.90;;;-141.84;100.00;108834.56;5010129;28;20281;-62
2023/12/01 02:43:59;;;;;;;23.53;15.17;;;0.40;99.90;;;-141.84;100.00;109632.72;5009651;28;20226;-62
2023/12/01 02:46:28;;;;;;;23.77;16.63;;;0.40;99.90;;;-141.84;100.00;111761.88;5010258;28;20313;-62
2023/12/01 02:48:56;;;;;;;24.50;15.13;;;0.40;99.90;;;-141.84;100.00;110431.03;5009922;28;20632;-62
2023/12/01 02:51:24;;;;;;;22.77;14.80;;;0.40;99.90;;;-141.84;100.00;108834.56;5009989;28;20230;-63
2023/12/01 02:53:52;;;;;;;23.63;14.87;;;0.40;99.90;;;-141.84;100.00;108302.56;5010114;28;20285;-61
2023/12/01 02:56:22;;;;;;;26.27;15.30;;;0.40;99.90;;;-141.84;100.00;108302.56;5012462;28;20754;-61
2023/12/01 02:58:50;;;;;;;24.03;14.07;;;0.40;99.90;;;-141.84;100.00;109100.59;5013226;28;20675;-61
2023/12/01 03:01:18;;;;;;;22.30;14.07;;;0.40;99.90;;;-141.84;100.00;108302.56;5014185;28;20253;-62
2023/12/01 03:03:46;;;;;;;22.93;13.80;;;0.30;99.90;;;-141.84;100.00;110431.03;5013533;28;20227;-62
2023/12/01 03:06:15;;;;;;;22.97;14.13;;;0.30;99.90;;;-141.84;100.00;112826.88;5013388;28;20314;-62
2023/12/01 03:08:43;;;;;;;22.23;14.63;;;0.40;99.90;;;-141.84;100.00;111761.88;5013569;28;20255;-62
2023/12/01 03:11:11;;;;;;;21.33;13.73;;;0.40;99.90;;;-141.84;100.00;110431.03;5013317;28;20649;-61
2023/12/01 03:13:40;;;;;;;21.90;14.27;;;0.40;99.90;;;-141.84;100.00;112294.34;5003046;28;20306;-63
2023/12/01 03:16:11;;;;;;;19.70;13.00;;;0.40;99.90;;;-141.84;100.00;112294.34;5008954;28;20308;-62
2023/12/01 03:18:39;;;;;;;19.63;13.03;;;0.40;99.90;;;-141.84;100.00;108568.56;5012093;28;20259;-62
2023/12/01 03:21:12;;;;;;;21.23;13.83;;;0.40;99.90;;;-141.84;100.00;107238.72;5012654;28;20233;-62
2023/12/01 03:23:42;;;;;;;22.00;14.03;;;0.40;99.90;;;-141.84;100.00;107770.63;5013269;28;20312;-62
2023/12/01 03:26:10;;;;;;;20.83;13.53;;;0.40;99.90;;;-141.84;100.00;108036.56;5013236;28;20234;-61
2023/12/01 03:28:40;;;;;;;20.77;12.77;;;0.40;99.90;;;-141.84;100.00;106441.06;5012696;28;20200;-62
2023/12/01 03:31:08;;;;;;;20.90;13.57;;;0.50;99.90;;;-141.84;100.00;105111.94;5013501;28;20283;-61
2023/12/01 03:33:37;;;;;;;20.73;12.63;;;0.40;99.90;;;-141.84;100.00;106972.81;5009631;28;20231;-62
2023/12/01 03:36:06;;;;;;;20.93;13.40;;;0.40;99.90;;;-141.84;100.00;107504.66;4993330;28;20283;-62
2023/12/01 03:38:34;;;;;;;22.00;14.43;;;0.40;99.90;;;-141.84;100.00;100861.66;4993413;28;20237;-62
2023/12/01 03:41:05;;;;;;;21.23;13.70;;;0.50;99.90;;;-141.84;100.00;101392.69;4993035;28;20309;-61
2023/12/01 03:43:34;;;;;;;21.50;13.90;;;0.50;99.90;;;-141.84;100.00;102455.00;5002300;28;20209;-63
2023/12/01 03:46:04;;;;;;;22.83;14.50;;;0.40;99.90;;;-141.84;100.00;102455.00;4993580;28;20294;-63
2023/12/01 03:48:33;;;;;;;19.97;13.10;;;0.50;99.90;;;-141.84;100.00;104846.16;5008698;28;20565;-61
2023/12/01 03:51:02;;;;;;;19.20;13.43;;;0.30;99.90;;;-141.84;100.00;106175.19;5012702;28;20672;-63
2023/12/01 03:53:30;;;;;;;21.93;14.20;;;0.40;99.90;;;-141.84;100.00;106441.06;5012522;28;20935;-62
2023/12/01 03:56:00;;;;;;;21.60;14.23;;;0.30;99.90;;;-141.84;100.00;104846.16;5012864;28;20229;-62
2023/12/01 03:58:28;;;;;;;24.80;15.10;;;0.40;99.90;;;-141.84;100.00;103783.25;5012527;28;20203;-62
2023/12/01 04:00:57;;;;;;;24.93;15.87;;;0.30;99.90;;;-141.84;100.00;102189.38;5012679;28;20237;-61
2023/12/01 04:03:26;;;;;;;22.97;15.40;;;0.30;99.90;;;-141.84;100.00;100065.22;5012563;28;20249;-62
2023/12/01 04:05:55;;;;;;;23.63;15.27;;;0.30;99.90;;;-141.84;100.00;99799.78;5012568;28;20228;-62
2023/12/01 04:08:23;;;;;;;23.23;14.10;;;0.30;99.90;;;-141.84;100.00;103517.56;5011585;28;20330;-62
2023/12/01 04:10:52;;;;;;;28.50;17.23;;;0.30;99.90;;;-141.84;100.00;102189.38;5012563;28;20229;-63
2023/12/01 04:13:20;;;;;;;25.20;16.63;;;0.30;99.90;;;-141.84;100.00;100861.66;5012558;28;20657;-63
2023/12/01 04:15:51;;;;;;;26.53;16.70;;;0.40;99.90;;;-141.84;100.00;99268.97;5012114;28;20256;-61
2023/12/01 04:18:19;;;;;;;24.70;16.00;;;0.40;99.90;;;-141.84;100.00;100861.66;5011987;28;20718;-61
2023/12/01 04:20:49;;;;;;;26.97;17.30;;;0.30;99.90;;;-141.84;100.00;101392.69;5012021;28;20279;-63
2023/12/01 04:23:17;;;;;;;26.17;16.83;;;0.40;99.90;;;-141.84;100.00;100065.22;5012024;28;20257;-62
2023/12/01 04:25:46;;;;;;;24.40;16.23;;;0.30;99.90;;;-141.84;100.00;102720.59;5011998;28;20307;-61
2023/12/01 04:28:15;;;;;;;24.97;15.83;;;0.50;99.90;;;-141.84;100.00;102455.00;5012588;28;20216;-61
2023/12/01 04:30:44;;;;;;;25.23;16.40;;;0.20;99.90;;;-141.84;100.00;104580.41;5005557;28;20226;-61
2023/12/01 04:33:13;;;;;;;26.50;16.33;;;0.20;99.90;;;-141.84;100.00;101658.25;4992193;28;20235;-63
2023/12/01 04:35:42;;;;;;;26.23;16.43;;;0.30;99.90;;;-141.84;100.00;102986.25;4992184;28;20679;-63
2023/12/01 04:38:11;;;;;;;28.43;17.07;;;0.20;99.90;;;-141.84;100.00;102189.38;4992316;28;20281;-62
2023/12/01 04:40:39;;;;;;;27.20;17.10;;;0.30;99.90;;;-141.84;100.00;99534.38;4992084;28;20207;-61
2023/12/01 04:43:07;;;;;;;26.03;16.67;;;0.30;99.90;;;-141.84;100.00;102455.00;4997682;28;20207;-61
2023/12/01 04:45:36;;;;;;;25.73;16.23;;;0.20;99.90;;;-141.84;100.00;104048.94;5011230;28;20231;-62
2023/12/01 04:48:07;;;;;;;27.83;17.73;;;0.20;99.90;;;-141.84;100.00;106972.81;5011513;28;20586;-61
2023/12/01 04:50:47;;;;;;;27.03;17.27;;;0.20;99.90;;;-141.84;100.00;109100.59;5011488;28;20252;-61
2023/12/01 04:53:16;;;;;;;25.93;17.17;;;0.10;99.90;;;-141.84;100.00;110431.03;5011694;28;20258;-61
2023/12/01 04:55:46;;;;;;;27.47;17.30;;;0.10;99.90;;;-141.84;100.00;111761.88;5011067;28;20252;-61
2023/12/01 04:58:15;;;;;;;28.67;16.67;;;0.10;99.90;;;-141.84;100.00;109100.59;5012181;28;20212;-62
2023/12/01 05:00:44;;;;;;;26.17;16.10;;;0.20;99.90;;;-141.84;100.00;104314.66;5011166;28;20270;-62
2023/12/01 05:03:13;;;;;;;28.40;17.13;;;0.30;99.90;;;-141.84;100.00;99268.97;5011369;28;20235;-62
2023/12/01 05:05:41;;;;;;;26.93;16.03;;;0.30;99.90;;;-141.84;100.00;95024.81;5011165;28;20280;-61
2023/12/01 05:08:11;;;;;;;26.57;17.63;;;0.30;99.90;;;-141.84;100.00;93699.44;5011377;28;20395;-61
2023/12/01 05:10:44;;;;;;;23.43;15.03;;;0.30;99.90;;;-141.84;100.00;94759.69;5011039;28;20266;-62
2023/12/01 05:13:14;;;;;;;22.67;14.67;;;0.30;99.90;;;-141.84;100.00;95820.25;5011711;28;20613;-62
2023/12/01 05:15:43;;;;;;;25.10;17.07;;;0.30;99.90;;;-141.84;100.00;99003.56;5010974;28;20236;-61
2023/12/01 05:18:11;;;;;;;26.57;16.63;;;0.30;99.90;;;-141.84;100.00;100861.66;5009029;28;20314;-61
2023/12/01 05:20:40;;;;;;;26.63;16.43;;;0.30;99.90;;;-141.84;100.00;96881.06;5007373;28;20668;-61
2023/12/01 05:23:09;;;;;;;24.93;16.90;;;0.30;99.90;;;-141.84;100.00;95289.94;5010983;28;20261;-61
2023/12/01 05:25:42;;;;;;;25.97;15.73;;;0.30;99.90;;;-141.84;100.00;90520.28;5010658;28;20650;-62
2023/12/01 05:28:12;;;;;;;25.90;16.37;;;0.20;99.90;;;-141.84;100.00;94229.53;5011489;28;20211;-62
2023/12/01 05:30:43;;;;;;;23.30;15.97;;;0.20;99.90;;;-141.84;100.00;95024.81;5010402;28;20253;-61
2023/12/01 05:33:12;;;;;;;26.50;17.10;;;0.20;99.90;;;-141.84;100.00;96615.84;5010842;28;20237;-62
2023/12/01 05:35:42;;;;;;;24.10;15.80;;;0.20;99.90;;;-141.84;100.00;100861.66;5000014;28;20235;-62
2023/12/01 05:38:11;;;;;;;27.63;16.40;;;0.20;99.90;;;-141.84;100.00;99268.97;4991480;28;20234;-61
2023/12/01 05:40:40;;;;;;;24.10;15.80;;;0.20;99.90;;;-141.84;100.00;96085.44;4991212;28;20270;-62
2023/12/01 05:43:09;;;;;;;25.60;16.50;;;0.20;99.90;;;-141.84;100.00;95555.09;4996754;28;20622;-61
2023/12/01 05:45:37;;;;;;;24.67;16.00;;;0.20;99.90;;;-141.84;100.00;94759.69;5010437;28;20228;-63
2023/12/01 05:48:07;;;;;;;25.73;17.17;;;0.20;99.90;;;-141.84;100.00;93169.38;5010876;28;20222;-62
2023/12/01 05:50:41;;;;;;;24.97;16.23;;;0.20;99.90;;;-141.84;100.00;92374.47;5010552;28;20235;-61
2023/12/01 05:53:11;;;;;;;25.93;16.87;;;0.20;99.90;;;-141.84;100.00;95820.25;5010559;28;20226;-62
2023/12/01 05:55:40;;;;;;;23.07;16.30;;;0.20;99.90;;;-141.84;100.00;95555.09;5010499;28;20206;-61
2023/12/01 05:58:11;;;;;;;26.17;17.23;;;0.30;99.90;;;-141.84;100.00;96085.44;5011359;28;20238;-61
2023/12/01 06:00:41;;;;;;;25.20;16.97;;;0.30;99.90;;;-141.84;100.00;98472.84;5010286;28;20222;-62
2023/12/01 06:03:11;;;;;;;26.83;17.47;;;0.20;99.90;;;-141.84;100.00;100065.22;5010545;28;20229;-61
2023/12/01 06:05:40;;;;;;;25.20;16.60;;;0.30;99.90;;;-141.84;100.00;96615.84;5010320;28;20232;-62
2023/12/01 06:08:09;;;;;;;25.10;17.20;;;0.30;99.90;;;-141.84;100.00;88666.94;5010310;28;20614;-61
2023/12/01 06:10:40;;;;;;;26.83;17.33;;;0.40;99.90;;;-141.84;100.00;87079.03;5010341;28;20208;-61
2023/12/01 06:13:09;;;;;;;27.67;17.53;;;0.30;99.90;;;-141.84;100.00;90520.28;5010819;28;20196;-61
2023/12/01 06:15:38;;;;;;;26.47;16.50;;;0.20;99.90;;;-141.84;100.00;95820.25;5010016;28;20724;-71
2023/12/01 06:18:06;;;;;;;27.67;17.07;;;0.20;99.90;;;-141.84;100.00;99799.78;5010723;28;20246;-70
2023/12/01 06:20:37;;;;;;;24.97;15.97;;;0.20;99.90;;;-141.84;100.00;95555.09;5010401;28;20797;-69
2023/12/01 06:23:08;;;;;;;21.93;15.53;;;0.20;99.90;;;-141.84;100.00;93434.41;5010885;28;20757;-70
2023/12/01 06:25:41;;;;;;;26.03;16.13;;;0.20;99.90;;;-141.84;100.00;93964.47;5010686;28;20249;-66
2023/12/01 06:28:10;;;;;;;21.10;14.87;;;0.20;99.90;;;-141.84;100.00;93964.47;5010842;28;20211;-70
2023/12/01 06:30:39;;;;;;;24.57;15.27;;;0.20;99.90;;;-141.84;100.00;96881.06;5011456;28;20738;-69
2023/12/01 06:33:08;;;;;;;25.47;15.53;;;0.20;99.90;;;-141.84;100.00;96615.84;5014249;28;20240;-70
2023/12/01 06:35:37;;;;;;;23.20;15.03;;;0.20;99.90;;;-141.84;100.00;96085.44;5014364;28;20310;-71
2023/12/01 06:38:07;;;;;;;25.37;15.63;;;0.20;99.90;;;-141.84;100.00;95289.94;5014410;28;20260;-71
2023/12/01 06:40:35;;;;;;;23.00;15.70;;;0.10;99.90;;;-141.84;100.00;99003.56;5014577;28;20733;-71
2023/12/01 06:43:09;;;;;;;23.33;15.23;;;0.10;99.90;;;-141.84;100.00;97146.31;5014510;28;20341;-71
2023/12/01 06:45:40;;;;;;;23.03;14.73;;;0.20;99.90;;;-141.84;100.00;95820.25;5014082;28;20240;-70
2023/12/01 06:48:09;;;;;;;21.57;13.53;;;0.10;99.90;;;-141.84;100.00;95820.25;5014733;28;20285;-70
2023/12/01 06:50:37;;;;;;;19.80;14.37;;;0.10;99.90;;;-141.84;100.00;95024.81;5014656;28;20226;-71
2023/12/01 06:53:06;;;;;;;21.03;15.17;;;0.10;99.90;;;-141.84;100.00;98207.50;5014913;28;20245;-71
2023/12/01 06:55:36;;;;;;;21.67;14.23;;;0.00;99.90;;;-141.84;100.00;99799.78;5017546;28;20222;-70
2023/12/01 06:58:09;;;;;;;19.33;13.43;;;0.10;99.90;;;-141.84;100.00;97411.59;5017841;28;20245;-70
2023/12/01 07:00:37;;;;;;;21.20;14.40;;;0.00;99.90;;;-141.84;100.00;99534.38;5019635;28;20550;-70
2023/12/01 07:03:07;;;;;;;22.53;14.33;;;0.10;99.90;;;-141.84;100.00;97942.19;5020207;28;20261;-71
2023/12/01 07:05:38;;;;;;;20.30;14.27;;;0.10;99.90;;;-141.84;100.00;94229.53;5019235;28;20261;-71
2023/12/01 07:08:12;;;;;;;20.63;13.53;;;0.10;99.90;;;-141.84;100.00;96350.63;5018796;28;20227;-70
2023/12/01 07:10:42;;;;;;;21.97;14.77;;;0.10;99.90;;;-141.84;100.00;100861.66;5016211;28;20211;-69
2023/12/01 07:13:12;;;;;;;21.90;14.77;;;0.10;99.90;;;-141.84;100.00;102189.38;5015002;28;20225;-70
2023/12/01 07:15:40;;;;;;;24.57;15.27;;;0.10;99.90;;;-141.84;100.00;101127.16;5013187;28;20849;-70
2023/12/01 07:18:09;;;;;;;23.60;16.37;;;0.10;99.90;;;-141.84;100.00;100330.69;5013345;28;20718;-70
2023/12/01 07:20:38;;;;;;;23.03;15.93;;;0.20;99.90;;;-141.84;100.00;97942.19;5013481;28;20241;-71
2023/12/01 07:23:06;;;;;;;26.37;16.57;;;0.20;99.90;;;-141.84;100.00;100065.22;5013086;28;20706;-72
2023/12/01 07:25:36;;;;;;;22.93;15.37;;;0.20;99.90;;;-141.84;100.00;97146.31;5013785;28;20572;-72
2023/12/01 07:28:08;;;;;;;26.80;17.80;;;0.30;99.90;;;-141.84;100.00;98738.19;4993844;28;20222;-71
2023/12/01 07:30:40;;;;;;;23.97;16.27;;;0.20;99.90;;;-141.84;100.00;100065.22;5009723;28;20254;-70
2023/12/01 07:33:09;;;;;;;25.13;16.43;;;0.30;99.90;;;-141.84;100.00;95024.81;5012954;28;20709;-70
2023/12/01 07:35:37;;;;;;;21.03;14.20;;;0.30;99.90;;;-141.84;100.00;95820.25;5013333;28;20238;-69
2023/12/01 07:38:05;;;;;;;21.93;14.53;;;0.30;99.90;;;-141.84;100.00;92904.41;5013084;28;20289;-70
2023/12/01 07:40:34;;;;;;;22.33;14.60;;;0.30;99.90;;;-141.84;100.00;92109.53;5013297;28;20683;-69
2023/12/01 07:43:02;;;;;;;22.73;15.77;;;0.30;99.90;;;-141.84;100.00;91314.81;4992364;28;20231;-69
2023/12/01 07:45:31;;;;;;;22.13;15.07;;;0.30;99.90;;;-141.84;100.00;88931.63;5008699;28;20632;-70
2023/12/01 07:48:00;;;;;;;23.23;15.57;;;0.30;99.90;;;-141.84;100.00;88931.63;5012844;28;20223;-71
2023/12/01 07:50:29;;;;;;;24.23;16.00;;;0.30;99.90;;;-141.84;100.00;90520.28;5012585;28;20279;-70
2023/12/01 07:52:57;;;;;;;24.07;16.47;;;0.20;99.90;;;-141.84;100.00;92639.44;5012250;28;20243;-71
2023/12/01 07:55:26;;;;;;;25.23;17.23;;;0.20;99.90;;;-141.84;100.00;91049.97;5013402;28;20206;-71
2023/12/01 07:57:55;;;;;;;27.17;16.33;;;0.20;99.90;;;-141.84;100.00;96350.63;5012312;28;20234;-70
2023/12/01 08:00:23;;;;;;;28.80;19.10;;;0.20;99.90;;;-141.84;100.00;90785.09;5011665;28;20222;-70
2023/12/01 08:02:53;;;;;;;29.30;18.20;;;0.30;99.90;;;-141.84;100.00;89990.66;5012450;28;20240;-70
2023/12/01 08:05:25;;;;;;;29.90;19.53;;;0.30;99.90;;;-141.84;100.00;93169.38;5012466;28;20626;-70
2023/12/01 08:07:54;;;;;;;27.03;18.40;;;0.30;99.90;;;-141.84;100.00;89990.66;5012670;28;20288;-69
2023/12/01 08:10:27;;;;;;;30.17;18.60;;;0.30;99.90;;;-141.84;100.00;90520.28;5012684;28;20536;-70
2023/12/01 08:12:59;;;;;;;28.47;19.10;;;0.30;99.90;;;-141.84;100.00;86020.75;5011993;28;20231;-69
2023/12/01 08:15:28;;;;;;;30.10;18.13;;;0.30;99.90;;;-141.84;100.00;87079.03;5012174;28;20324;-70
2023/12/01 08:17:59;;;;;;;26.93;17.63;;;0.50;99.90;;;-141.84;100.00;88402.22;5011999;28;20721;-71
2023/12/01 08:20:29;;;;;;;31.27;17.50;;;0.20;99.90;;;-141.84;100.00;91049.97;5012281;28;20226;-70
2023/12/01 08:22:59;;;;;;;26.43;17.53;;;0.20;99.90;;;-141.84;100.00;93169.38;5012088;28;20233;-70
2023/12/01 08:25:29;;;;;;;27.83;18.37;;;0.20;99.90;;;-141.84;100.00;87343.63;5012419;28;20210;-72
2023/12/01 08:27:57;;;;;;;27.27;17.57;;;0.20;99.90;;;-141.84;100.00;83905.09;5011776;28;20285;-71
2023/12/01 08:30:25;;;;;;;27.37;17.37;;;0.20;99.90;;;-141.84;100.00;83640.72;5011715;28;20277;-71
2023/12/01 08:32:55;;;;;;;28.30;17.73;;;0.20;99.90;;;-141.84;100.00;86549.84;5011671;28;20237;-70
2023/12/01 08:35:24;;;;;;;26.90;17.50;;;0.20;99.90;;;-141.84;100.00;89990.66;5012251;28;20251;-69
2023/12/01 08:37:54;;;;;;;25.97;16.53;;;0.20;99.90;;;-141.84;100.00;93434.41;5012023;28;20222;-70
2023/12/01 08:40:23;;;;;;;25.33;17.07;;;0.20;99.90;;;-141.84;100.00;87872.91;5012452;28;20262;-71
2023/12/01 08:42:54;;;;;;;27.50;16.87;;;0.20;99.90;;;-141.84;100.00;80205.34;5011605;28;20718;-70
2023/12/01 08:45:22;;;;;;;27.13;16.47;;;0.20;99.90;;;-141.84;100.00;82054.78;5010487;28;20262;-71
2023/12/01 08:47:52;;;;;;;27.63;17.10;;;0.20;99.90;;;-141.84;100.00;80733.66;5007024;28;20314;-70
2023/12/01 08:50:22;;;;;;;25.97;17.13;;;0.10;99.90;;;-141.84;100.00;77828.72;5006730;28;20711;-69
2023/12/01 08:52:50;;;;;;;25.57;16.63;;;0.20;99.90;;;-141.84;100.00;79148.88;5009778;28;20203;-71
2023/12/01 08:55:20;;;;;;;25.40;16.37;;;0.20;99.90;;;-141.84;100.00;84169.50;5012134;28;20205;-70
2023/12/01 08:57:48;;;;;;;23.37;16.07;;;0.10;99.90;;;-141.84;100.00;82054.78;5009802;28;20801;-69
2023/12/01 09:00:20;;;;;;;22.73;14.93;;;0.10;99.90;;;-141.84;100.00;73870.81;5010723;28;20626;-73
2023/12/01 09:02:51;;;;;;;23.50;15.97;;;0.20;99.90;;;-141.84;100.00;70970.84;5011226;28;20222;-74
2023/12/01 09:05:20;;;;;;;26.17;16.63;;;0.20;99.90;;;-141.84;100.00;73079.69;5011463;28;20231;-73
2023/12/01 09:07:48;;;;;;;25.40;16.37;;;0.20;99.90;;;-141.84;100.00;80205.34;5010082;28;20230;-72
2023/12/01 09:10:22;;;;;;;24.93;15.93;;;0.20;99.90;;;-141.84;100.00;72552.38;5011097;28;20313;-73
2023/12/01 09:12:51;;;;;;;25.60;16.57;;;0.30;99.90;;;-141.84;100.00;69389.94;5010719;28;20245;-76
2023/12/01 09:15:20;;;;;;;26.00;15.77;;;0.30;99.90;;;-141.84;100.00;72025.13;5005407;28;20765;-72
2023/12/01 09:17:49;;;;;;;25.17;16.47;;;0.30;99.90;;;-141.84;100.00;67283.00;5010996;28;20315;-73
2023/12/01 09:20:17;;;;;;;22.90;15.47;;;0.30;99.90;;;-141.84;100.00;64124.72;5002606;28;20223;-74
2023/12/01 09:22:46;;;;;;;24.00;15.93;;;0.30;99.90;;;-141.84;100.00;58866.47;4992451;28;20195;-76
2023/12/01 09:25:14;;;;;;;23.43;16.03;;;0.40;99.90;;;-141.84;100.00;64387.81;5011519;28;20609;-70
2023/12/01 09:27:44;;;;;;;21.83;14.50;;;0.30;99.90;;;-141.84;99.34;54927.34;5010959;28;20308;-71
2023/12/01 09:30:16;;;;;;;22.50;15.40;;;0.40;99.90;;;-141.84;97.58;40742.13;5010590;28;20224;-73
2023/12/01 09:32:46;;;;;;;22.20;15.13;;;0.40;99.90;;;-141.84;98.48;44965.75;5006328;28;20577;-72
2023/12/01 09:35:15;;;;;;;22.87;14.87;;;0.40;99.90;;;-141.84;98.80;47060.84;4991501;28;20236;-72
2023/12/01 09:38:04;;;;;;;23.57;15.50;;;0.40;99.90;;;-141.84;97.76;44180.38;4991285;28;20227;-72
2023/12/01 09:40:34;;;;;;;25.20;15.43;;;0.50;99.90;;;-141.84;95.82;30914.09;4991430;28;20720;-71
2023/12/01 09:43:04;;;;;;;21.93;15.20;;;0.60;99.90;;;-141.84;96.14;33813.41;4976102;28;20735;-71
2023/12/01 09:45:32;;;;;;;22.60;15.33;;;0.60;99.90;;;-141.84;95.71;32076.00;5006251;28;20222;-68
2023/12/01 09:48:04;;;;;;;23.53;16.13;;;0.50;99.90;;;-141.84;94.12;24633.50;5010484;28;20245;-60
2023/12/01 09:50:32;;;;;;;24.80;16.00;;;0.60;99.90;;;-141.84;95.30;27463.00;5010076;28;20234;-60
2023/12/01 09:53:02;;;;;;;21.87;15.67;;;0.50;99.90;;;-141.84;95.42;28966.13;5009790;28;20237;-63
2023/12/01 09:55:33;;;;;;;24.67;16.77;;;0.40;99.90;;;-141.84;94.98;27878.44;4994253;28;20205;-61
2023/12/01 09:58:03;;;;;;;24.83;16.10;;;0.50;99.90;;;-141.84;96.56;32907.91;4991243;28;20346;-72
2023/12/01 10:00:31;;;;;;;23.17;15.30;;;0.50;99.90;;;-141.84;97.02;34353.97;4991106;28;20306;-71